< < Back
Terminal Aerodrome Forecast


Current Version              Previous Versions:   1  2  3  4  5  6  7  8  9  

Terminal Aerodrome Forecast

879
FTUS42 KCHS 212300 CCA
TAFSAV
TAF COR
KSAV 212332Z 2200/2224 VRB04KT P6SM VCTS FEW015 SCT025CB BKN050
      TEMPO 2200/2202 5SM -TSRA BR SCT015 BKN025CB
     FM220200 00000KT 6SM BR SCT010 BKN035
     FM221600 05005KT P6SM VCTS SCT030CB BKN060
     FM222000 12008KT P6SM SCT040 BKN200=

Latest METAR

241
SAUS80 KWBC 220700
MTRSAV
METAR KSAV 220653Z AUTO 00000KT 8SM R10/6000VP6000FT CLR 23/22 A3003 RMK
AO2 SLP168 T02280217 TSNO


USA.gov is the U.S. government's official web portal to all federal, state and local government web resources and services.